createdAt,value
2018-08-11T00:00:54.166Z,97.70
2018-08-11T00:03:23.673Z,97.80
2018-08-11T00:05:53.261Z,98.50
2018-08-11T00:08:22.946Z,97.70
2018-08-11T00:10:52.705Z,98.60
2018-08-11T00:13:22.417Z,99.00
2018-08-11T00:15:52.043Z,98.80
2018-08-11T00:18:21.649Z,98.50
2018-08-11T00:20:51.529Z,99.70
2018-08-11T00:23:21.330Z,99.50
2018-08-11T00:25:51.065Z,99.30
2018-08-11T00:28:20.737Z,99.90
2018-08-11T00:30:50.484Z,99.90
2018-08-11T00:33:20.120Z,99.90
2018-08-11T00:35:49.924Z,99.90
2018-08-11T00:38:19.575Z,99.90
2018-08-11T00:40:49.296Z,99.90
2018-08-11T00:43:19.168Z,99.90
2018-08-11T00:45:49.481Z,99.90
2018-08-11T00:48:18.982Z,99.90
2018-08-11T00:50:49.518Z,99.90
2018-08-11T00:53:19.600Z,99.90
2018-08-11T00:55:49.289Z,99.90
2018-08-11T00:58:19.208Z,99.90
2018-08-11T01:00:48.967Z,99.90
2018-08-11T01:03:18.530Z,99.90
2018-08-11T01:05:48.092Z,99.90
2018-08-11T01:08:17.808Z,99.90
2018-08-11T01:10:47.581Z,99.90
2018-08-11T01:13:17.507Z,99.90
2018-08-11T01:15:47.181Z,99.90
2018-08-11T01:18:16.784Z,99.90
2018-08-11T01:20:46.719Z,99.90
2018-08-11T01:23:16.516Z,99.90
2018-08-11T01:25:46.434Z,99.90
2018-08-11T01:28:16.244Z,99.90
2018-08-11T01:30:52.635Z,99.90
2018-08-11T01:33:22.225Z,99.90
2018-08-11T01:35:51.882Z,99.90
2018-08-11T01:38:21.557Z,99.90
2018-08-11T01:40:51.148Z,99.90
2018-08-11T01:43:20.991Z,99.90
2018-08-11T01:45:51.377Z,99.90
2018-08-11T01:48:20.993Z,99.90
2018-08-11T01:50:50.753Z,99.90
2018-08-11T01:53:20.418Z,99.90
2018-08-11T01:55:50.144Z,99.90
2018-08-11T01:58:19.777Z,99.90
2018-08-11T02:00:49.456Z,99.90
2018-08-11T02:03:19.106Z,99.90
2018-08-11T02:05:48.752Z,99.90
2018-08-11T02:08:18.326Z,99.90
2018-08-11T02:10:48.136Z,99.90
2018-08-11T02:13:17.902Z,99.90
2018-08-11T02:15:47.610Z,99.90
2018-08-11T02:18:17.167Z,99.90
2018-08-11T02:20:46.676Z,99.90
2018-08-11T02:23:16.473Z,99.90
2018-08-11T02:25:46.116Z,99.90
2018-08-11T02:28:15.941Z,99.90
2018-08-11T02:30:45.699Z,99.90
2018-08-11T02:33:15.262Z,99.90
2018-08-11T02:35:44.985Z,99.90
2018-08-11T02:38:14.692Z,99.90
2018-08-11T02:40:44.263Z,99.90
2018-08-11T02:43:13.910Z,99.90
2018-08-11T02:45:43.602Z,99.90
2018-08-11T02:48:13.345Z,99.90
2018-08-11T02:50:42.912Z,99.90
2018-08-11T02:53:12.522Z,99.90
2018-08-11T02:55:42.025Z,99.90
2018-08-11T02:58:11.738Z,99.90
2018-08-11T03:00:41.473Z,99.90
2018-08-11T03:03:11.152Z,99.90
2018-08-11T03:05:40.850Z,99.90
2018-08-11T03:08:10.438Z,99.90
2018-08-11T03:10:40.083Z,99.90
2018-08-11T03:13:09.733Z,99.90
2018-08-11T03:15:40.129Z,99.90
2018-08-11T03:18:09.757Z,99.90
2018-08-11T03:20:39.594Z,99.90
2018-08-11T03:23:09.092Z,99.90
2018-08-11T03:25:38.850Z,99.90
2018-08-11T03:28:08.614Z,99.90
2018-08-11T03:30:38.339Z,99.90
2018-08-11T03:33:08.014Z,99.90
2018-08-11T03:35:37.592Z,99.90
2018-08-11T03:38:07.285Z,99.90
2018-08-11T03:40:43.446Z,99.90
2018-08-11T03:43:12.976Z,99.90
2018-08-11T03:45:42.570Z,99.90
2018-08-11T03:48:12.174Z,99.90
2018-08-11T03:50:41.883Z,99.90
2018-08-11T03:53:11.599Z,99.90
2018-08-11T03:55:47.429Z,99.90
2018-08-11T03:58:17.083Z,99.90
2018-08-11T04:00:46.768Z,99.90
2018-08-11T04:03:16.474Z,99.90
2018-08-11T04:05:46.081Z,99.90
2018-08-11T04:08:15.794Z,99.90
2018-08-11T04:10:45.502Z,99.90
2018-08-11T04:13:15.007Z,99.90
2018-08-11T04:15:44.536Z,99.90
2018-08-11T04:18:14.032Z,99.90
2018-08-11T04:20:43.628Z,99.90
2018-08-11T04:23:13.326Z,99.90
2018-08-11T04:25:42.957Z,99.90
2018-08-11T04:28:12.443Z,99.90
2018-08-11T04:30:42.098Z,99.90
2018-08-11T04:33:11.761Z,99.90
2018-08-11T04:35:41.394Z,99.90
2018-08-11T04:38:11.134Z,99.90
2018-08-11T04:40:40.782Z,99.90
2018-08-11T04:43:10.420Z,99.90
2018-08-11T04:45:40.111Z,99.90
2018-08-11T04:48:09.820Z,99.90
2018-08-11T04:50:39.427Z,99.90
2018-08-11T04:53:08.926Z,99.90
2018-08-11T04:55:38.892Z,99.90
2018-08-11T04:58:08.709Z,99.90
2018-08-11T05:00:38.458Z,99.90
2018-08-11T05:03:08.110Z,99.90
2018-08-11T05:05:37.717Z,99.90
2018-08-11T05:08:07.374Z,99.90
2018-08-11T05:10:37.058Z,99.90
2018-08-11T05:13:06.888Z,99.90
2018-08-11T05:15:36.437Z,99.90
2018-08-11T05:18:06.422Z,99.90
2018-08-11T05:20:36.206Z,99.90
2018-08-11T05:23:05.786Z,99.90
2018-08-11T05:25:35.720Z,99.90
2018-08-11T05:28:05.716Z,99.90
2018-08-11T05:30:35.435Z,99.90
2018-08-11T05:33:05.384Z,99.90
2018-08-11T05:35:34.992Z,99.90
2018-08-11T05:38:04.681Z,99.90
2018-08-11T05:40:34.308Z,99.60
2018-08-11T05:43:03.900Z,98.50
2018-08-11T05:45:33.725Z,99.90
2018-08-11T05:48:03.432Z,97.00
2018-08-11T05:50:33.452Z,99.30
2018-08-11T05:53:03.904Z,99.90
2018-08-11T05:55:33.536Z,98.60
2018-08-11T05:58:03.174Z,99.00
2018-08-11T06:00:32.967Z,97.20
2018-08-11T06:03:02.721Z,98.20
2018-08-11T06:05:32.608Z,97.60
2018-08-11T06:08:02.208Z,97.80
2018-08-11T06:10:32.095Z,99.10
2018-08-11T06:13:01.706Z,97.40
2018-08-11T06:15:31.531Z,95.00
2018-08-11T06:18:01.149Z,93.60
2018-08-11T06:20:30.965Z,93.80
2018-08-11T06:23:00.666Z,92.80
2018-08-11T06:25:30.747Z,93.40
2018-08-11T06:28:00.476Z,92.50
2018-08-11T06:30:30.297Z,90.70
2018-08-11T06:32:59.940Z,86.10
2018-08-11T06:35:29.615Z,82.20
2018-08-11T06:37:59.539Z,72.00
2018-08-11T06:40:29.263Z,69.50
2018-08-11T06:42:58.989Z,66.30
2018-08-11T06:45:28.533Z,64.10
2018-08-11T06:47:58.268Z,65.60
2018-08-11T06:50:28.481Z,66.80
2018-08-11T06:52:58.102Z,68.10
2018-08-11T06:55:27.881Z,69.90
2018-08-11T06:57:57.544Z,71.80
2018-08-11T07:00:27.334Z,70.30
2018-08-11T07:02:56.936Z,65.00
2018-08-11T07:05:26.614Z,56.90
2018-08-11T07:07:57.597Z,52.40
2018-08-11T07:10:27.211Z,50.70
2018-08-11T07:13:01.300Z,46.10
2018-08-11T07:15:31.037Z,42.10
2018-08-11T07:18:00.609Z,40.80
2018-08-11T07:20:30.273Z,38.60
2018-08-11T07:22:59.998Z,35.20
2018-08-11T07:25:29.674Z,33.70
2018-08-11T07:27:59.412Z,33.30
2018-08-11T07:30:29.054Z,34.10
2018-08-11T07:32:58.685Z,33.70
2018-08-11T07:35:28.405Z,32.00
2018-08-11T07:37:57.981Z,32.40
2018-08-11T07:40:28.131Z,31.70
2018-08-11T07:42:57.766Z,31.10
2018-08-11T07:45:27.541Z,36.60
2018-08-11T07:47:57.052Z,32.50
2018-08-11T07:50:26.699Z,31.30
2018-08-11T07:52:56.579Z,33.40
2018-08-11T07:55:26.157Z,31.50
2018-08-11T07:57:56.077Z,32.00
2018-08-11T08:00:25.814Z,31.10
2018-08-11T08:02:55.527Z,31.80
2018-08-11T08:05:25.306Z,29.50
2018-08-11T08:07:54.924Z,32.80
2018-08-11T08:10:24.921Z,30.40
2018-08-11T08:12:54.666Z,29.20
2018-08-11T08:15:24.288Z,29.50
2018-08-11T08:17:54.016Z,30.50
2018-08-11T08:20:23.699Z,32.30
2018-08-11T08:22:53.419Z,29.30
2018-08-11T08:25:23.050Z,29.30
2018-08-11T08:27:52.634Z,28.50
2018-08-11T08:30:30.894Z,29.00
2018-08-11T08:33:00.643Z,28.80
2018-08-11T08:35:30.209Z,30.00
2018-08-11T08:37:59.869Z,28.00
2018-08-11T08:40:29.481Z,27.30
2018-08-11T08:42:59.088Z,27.20
2018-08-11T08:45:28.800Z,28.60
2018-08-11T08:47:58.501Z,30.70
2018-08-11T08:50:28.109Z,28.40
2018-08-11T08:52:57.612Z,27.20
2018-08-11T08:55:27.237Z,27.00
2018-08-11T08:57:56.850Z,26.40
2018-08-11T09:00:26.707Z,27.30
2018-08-11T09:02:56.388Z,29.00
2018-08-11T09:05:26.024Z,28.60
2018-08-11T09:07:55.540Z,30.00
2018-08-11T09:10:25.397Z,31.30
2018-08-11T09:12:55.004Z,31.80
2018-08-11T09:15:24.575Z,32.00
2018-08-11T09:17:54.447Z,33.60
2018-08-11T09:20:24.131Z,32.10
2018-08-11T09:22:53.888Z,34.80
2018-08-11T09:25:23.635Z,34.00
2018-08-11T09:27:53.256Z,36.70
2018-08-11T09:30:23.058Z,35.20
2018-08-11T09:32:52.593Z,38.40
2018-08-11T09:35:22.792Z,38.50
2018-08-11T09:37:59.256Z,33.90
2018-08-11T09:40:29.072Z,36.60
2018-08-11T09:42:59.525Z,35.10
2018-08-11T09:45:29.190Z,36.40
2018-08-11T09:47:59.043Z,35.50
2018-08-11T09:50:28.609Z,32.90
2018-08-11T09:52:58.346Z,32.30
2018-08-11T09:55:27.950Z,31.60
2018-08-11T09:57:57.808Z,29.80
2018-08-11T10:00:32.726Z,30.10
2018-08-11T10:03:02.350Z,32.60
2018-08-11T10:05:32.080Z,34.30
2018-08-11T10:08:01.725Z,37.60
2018-08-11T10:10:31.422Z,38.90
2018-08-11T10:13:01.375Z,40.90
2018-08-11T10:15:31.047Z,40.30
2018-08-11T10:18:00.682Z,35.30
2018-08-11T10:20:30.354Z,34.90
2018-08-11T10:23:00.832Z,36.20
2018-08-11T10:25:30.453Z,36.60
2018-08-11T10:28:00.264Z,37.70
2018-08-11T10:30:30.068Z,35.80
2018-08-11T10:32:59.777Z,36.90
2018-08-11T10:35:29.595Z,37.30
2018-08-11T10:37:59.253Z,37.40
2018-08-11T10:40:30.938Z,36.90
2018-08-11T10:43:01.527Z,35.10
2018-08-11T10:45:31.294Z,32.30
2018-08-11T10:48:01.160Z,30.20
2018-08-11T10:50:30.781Z,28.30
2018-08-11T10:53:00.495Z,27.30
2018-08-11T10:55:30.845Z,26.90
2018-08-11T10:58:00.590Z,27.20
2018-08-11T11:00:30.340Z,29.10
2018-08-11T11:03:01.019Z,30.80
2018-08-11T11:05:30.861Z,32.50
2018-08-11T11:08:00.502Z,33.30
2018-08-11T11:10:30.117Z,33.90
2018-08-11T11:12:59.905Z,33.80
2018-08-11T11:15:29.650Z,34.60
2018-08-11T11:17:59.367Z,29.70
2018-08-11T11:20:29.315Z,30.70
2018-08-11T11:22:58.975Z,31.40
2018-08-11T11:25:28.799Z,33.50
2018-08-11T11:27:58.571Z,34.40
2018-08-11T11:30:29.208Z,35.20
2018-08-11T11:32:58.785Z,35.40
2018-08-11T11:35:28.539Z,33.50
2018-08-11T11:37:58.870Z,31.00
2018-08-11T11:40:28.818Z,32.30
2018-08-11T11:42:59.313Z,31.50
2018-08-11T11:45:29.400Z,33.70
2018-08-11T11:47:59.792Z,34.50
2018-08-11T11:50:29.479Z,37.30
2018-08-11T11:52:58.971Z,36.20
2018-08-11T11:55:28.713Z,36.00
2018-08-11T11:57:58.598Z,37.50
2018-08-11T12:00:29.040Z,35.20
2018-08-11T12:02:59.365Z,32.90
2018-08-11T12:05:29.027Z,33.40
2018-08-11T12:07:58.855Z,34.60
2018-08-11T12:10:28.868Z,34.70
2018-08-11T12:12:58.382Z,32.80
2018-08-11T12:15:28.090Z,32.70
2018-08-11T12:17:57.738Z,35.10
2018-08-11T12:20:27.541Z,36.00
2018-08-11T12:22:57.232Z,36.60
2018-08-11T12:25:26.832Z,37.20
2018-08-11T12:27:56.421Z,37.00
2018-08-11T12:30:26.169Z,37.30
2018-08-11T12:32:55.872Z,36.90
2018-08-11T12:35:25.600Z,37.90
2018-08-11T12:37:55.344Z,37.10
2018-08-11T12:40:25.016Z,35.60
2018-08-11T12:42:54.597Z,35.40
2018-08-11T12:45:24.293Z,34.50
2018-08-11T12:47:53.863Z,34.10
2018-08-11T12:50:23.535Z,33.80
2018-08-11T12:52:53.215Z,34.50
2018-08-11T12:55:22.847Z,34.50
2018-08-11T12:57:52.559Z,33.90
2018-08-11T13:00:22.258Z,31.30
2018-08-11T13:02:51.959Z,31.40
2018-08-11T13:05:21.454Z,33.00
2018-08-11T13:07:51.164Z,31.70
2018-08-11T13:10:20.848Z,33.10
2018-08-11T13:12:50.567Z,33.00
2018-08-11T13:15:20.249Z,33.80
2018-08-11T13:17:49.789Z,35.70
2018-08-11T13:20:19.435Z,35.00
2018-08-11T13:22:49.133Z,34.60
2018-08-11T13:25:18.672Z,36.40
2018-08-11T13:27:48.892Z,37.70
2018-08-11T13:30:18.569Z,36.90
2018-08-11T13:32:48.940Z,36.20
2018-08-11T13:35:18.464Z,35.80
2018-08-11T13:37:48.401Z,37.20
2018-08-11T13:40:17.929Z,36.10
2018-08-11T13:42:47.616Z,36.10
2018-08-11T13:45:17.441Z,37.70
2018-08-11T13:47:47.394Z,35.80
2018-08-11T13:50:17.116Z,36.60
2018-08-11T13:52:46.795Z,36.40
2018-08-11T13:55:16.647Z,36.30
2018-08-11T13:57:46.264Z,35.90
2018-08-11T14:00:16.546Z,35.00
2018-08-11T14:02:46.401Z,36.20
2018-08-11T14:05:16.538Z,36.10
2018-08-11T14:07:46.199Z,34.20
2018-08-11T14:10:15.747Z,33.70
2018-08-11T14:12:45.578Z,33.00
2018-08-11T14:15:15.180Z,32.60
2018-08-11T14:17:44.809Z,32.40
2018-08-11T14:20:14.456Z,33.90
2018-08-11T14:22:44.225Z,34.50
2018-08-11T14:25:20.422Z,35.00
2018-08-11T14:27:50.001Z,34.10
2018-08-11T14:30:19.813Z,35.50
2018-08-11T14:32:49.671Z,36.70
2018-08-11T14:35:19.454Z,35.40
2018-08-11T14:37:48.951Z,35.80
2018-08-11T14:40:18.464Z,36.00
2018-08-11T14:42:50.776Z,35.40
2018-08-11T14:45:22.111Z,34.90
2018-08-11T14:47:51.748Z,36.60
2018-08-11T14:50:21.482Z,34.50
2018-08-11T14:52:51.210Z,34.20
2018-08-11T14:55:20.839Z,34.60
2018-08-11T14:57:50.542Z,34.40
2018-08-11T15:00:20.250Z,35.60
2018-08-11T15:02:50.521Z,35.80
2018-08-11T15:05:20.351Z,35.80
2018-08-11T15:07:50.169Z,36.20
2018-08-11T15:10:19.889Z,35.80
2018-08-11T15:12:49.358Z,36.80
2018-08-11T15:15:19.026Z,36.00
2018-08-11T15:17:48.802Z,34.20
2018-08-11T15:20:18.529Z,35.70
2018-08-11T15:22:48.241Z,35.00
2018-08-11T15:25:18.074Z,33.90
2018-08-11T15:27:47.964Z,33.80
2018-08-11T15:30:17.686Z,34.60
2018-08-11T15:32:47.368Z,35.90
2018-08-11T15:35:16.996Z,35.60
2018-08-11T15:37:46.563Z,33.80
2018-08-11T15:40:16.222Z,34.80
2018-08-11T15:42:45.939Z,35.50
2018-08-11T15:45:15.720Z,34.70
2018-08-11T15:47:45.550Z,36.20
2018-08-11T15:50:15.221Z,34.10
2018-08-11T15:52:45.166Z,33.50
2018-08-11T15:55:14.914Z,33.40
2018-08-11T15:57:44.699Z,32.20
2018-08-11T16:00:14.506Z,32.10
2018-08-11T16:02:44.405Z,34.30
2018-08-11T16:05:14.125Z,34.40
2018-08-11T16:07:43.914Z,35.20
2018-08-11T16:10:14.496Z,35.70
2018-08-11T16:12:44.171Z,36.10
2018-08-11T16:15:13.968Z,34.60
2018-08-11T16:17:43.698Z,34.50
2018-08-11T16:20:13.456Z,35.90
2018-08-11T16:22:43.141Z,33.30
2018-08-11T16:25:12.859Z,32.50
2018-08-11T16:27:43.812Z,33.10
2018-08-11T16:30:14.007Z,33.50
2018-08-11T16:32:43.825Z,35.10
2018-08-11T16:35:13.472Z,34.10
2018-08-11T16:37:43.318Z,34.20
2018-08-11T16:40:13.032Z,34.80
2018-08-11T16:42:42.630Z,34.30
2018-08-11T16:45:12.374Z,35.70
2018-08-11T16:47:42.157Z,36.30
2018-08-11T16:50:11.853Z,35.00
2018-08-11T16:52:41.496Z,35.40
2018-08-11T16:55:11.127Z,34.40
2018-08-11T16:57:40.912Z,38.50
2018-08-11T17:00:12.814Z,37.10
2018-08-11T17:02:43.514Z,36.60
2018-08-11T17:05:13.262Z,39.00
2018-08-11T17:07:43.497Z,43.50
2018-08-11T17:10:13.405Z,44.30
2018-08-11T17:12:43.094Z,43.50
2018-08-11T17:15:12.866Z,43.90
2018-08-11T17:17:42.723Z,44.80
2018-08-11T17:20:12.496Z,46.20
2018-08-11T17:22:42.182Z,46.60
2018-08-11T17:25:11.809Z,47.80
2018-08-11T17:27:41.611Z,47.90
2018-08-11T17:30:11.456Z,48.40
2018-08-11T17:32:41.338Z,48.10
2018-08-11T17:35:11.144Z,47.70
2018-08-11T17:37:40.775Z,48.50
2018-08-11T17:40:10.575Z,50.30
2018-08-11T17:42:40.151Z,51.60
2018-08-11T17:45:09.706Z,51.70
2018-08-11T17:47:39.306Z,53.90
2018-08-11T17:50:09.431Z,54.20
2018-08-11T17:52:39.194Z,53.50
2018-08-11T17:55:08.898Z,53.60
2018-08-11T17:57:38.885Z,55.20
2018-08-11T18:00:08.475Z,55.60
2018-08-11T18:02:45.030Z,55.80
2018-08-11T18:05:14.859Z,56.80
2018-08-11T18:07:44.788Z,58.80
2018-08-11T18:10:15.608Z,58.70
2018-08-11T18:12:45.579Z,57.70
2018-08-11T18:15:15.081Z,60.30
2018-08-11T18:17:44.952Z,60.40
2018-08-11T18:20:14.763Z,60.60
2018-08-11T18:22:44.584Z,61.60
2018-08-11T18:25:14.437Z,63.80
2018-08-11T18:27:44.263Z,63.90
2018-08-11T18:30:14.001Z,64.00
2018-08-11T18:32:43.657Z,65.50
2018-08-11T18:35:13.170Z,67.00
2018-08-11T18:37:42.952Z,66.60
2018-08-11T18:40:12.722Z,66.70
2018-08-11T18:42:42.561Z,67.30
2018-08-11T18:45:12.160Z,68.00
2018-08-11T18:47:41.882Z,69.20
2018-08-11T18:50:12.127Z,70.10
2018-08-11T18:52:41.824Z,70.50
2018-08-11T18:55:11.830Z,69.90
2018-08-11T18:57:41.533Z,71.10
2018-08-11T19:00:16.108Z,71.60
2018-08-11T19:02:46.394Z,70.90
2018-08-11T19:05:16.245Z,72.50
2018-08-11T19:07:46.128Z,73.50
2018-08-11T19:10:15.919Z,73.00
2018-08-11T19:12:45.684Z,73.40
2018-08-11T19:15:15.858Z,72.60
2018-08-11T19:17:45.752Z,73.70
2018-08-11T19:20:15.533Z,74.10
2018-08-11T19:22:45.853Z,73.90
2018-08-11T19:25:15.423Z,75.30
2018-08-11T19:27:45.114Z,76.00
2018-08-11T19:30:14.946Z,77.10
2018-08-11T19:32:44.842Z,77.00
2018-08-11T19:35:14.688Z,78.50
2018-08-11T19:37:44.432Z,78.90
2018-08-11T19:40:14.072Z,79.00
2018-08-11T19:42:43.899Z,80.10
2018-08-11T19:45:13.645Z,81.00
2018-08-11T19:47:43.581Z,82.20
2018-08-11T19:50:13.438Z,83.20
2018-08-11T19:52:43.518Z,83.20
2018-08-11T19:55:13.478Z,84.10
2018-08-11T19:57:43.242Z,84.40
2018-08-11T20:00:14.429Z,85.20
2018-08-11T20:02:44.253Z,84.80
2018-08-11T20:05:13.859Z,86.10
2018-08-11T20:07:43.493Z,87.30
2018-08-11T20:10:13.945Z,86.70
2018-08-11T20:12:43.621Z,87.90
2018-08-11T20:15:13.321Z,88.80
2018-08-11T20:17:43.068Z,86.50
2018-08-11T20:20:12.979Z,86.10
2018-08-11T20:22:42.898Z,84.20
2018-08-11T20:25:12.621Z,84.60
2018-08-11T20:27:42.295Z,85.00
2018-08-11T20:30:12.791Z,84.20
2018-08-11T20:32:42.448Z,84.10
2018-08-11T20:35:12.373Z,84.00
2018-08-11T20:37:42.291Z,84.10
2018-08-11T20:40:12.255Z,85.50
2018-08-11T20:42:41.955Z,85.30
2018-08-11T20:45:11.828Z,85.40
2018-08-11T20:47:41.509Z,84.10
2018-08-11T20:50:11.409Z,86.50
2018-08-11T20:52:41.193Z,86.70
2018-08-11T20:55:10.959Z,87.40
2018-08-11T20:57:47.271Z,89.20
2018-08-11T21:00:17.091Z,89.40
2018-08-11T21:02:46.922Z,88.60
2018-08-11T21:05:16.567Z,90.00
2018-08-11T21:07:46.285Z,89.40
2018-08-11T21:10:16.674Z,89.30
2018-08-11T21:12:46.265Z,88.50
2018-08-11T21:15:16.187Z,90.50
2018-08-11T21:17:46.077Z,91.10
2018-08-11T21:20:15.785Z,89.30
2018-08-11T21:22:45.508Z,90.30
2018-08-11T21:25:15.323Z,90.80
2018-08-11T21:27:45.202Z,90.70
2018-08-11T21:30:15.734Z,90.90
2018-08-11T21:32:45.443Z,90.90
2018-08-11T21:35:15.442Z,91.30
2018-08-11T21:37:45.018Z,91.60
2018-08-11T21:40:15.640Z,92.00
2018-08-11T21:42:45.361Z,91.90
2018-08-11T21:45:15.122Z,91.80
2018-08-11T21:47:45.372Z,90.30
2018-08-11T21:50:15.075Z,92.10
2018-08-11T21:52:45.037Z,91.90
2018-08-11T21:55:14.835Z,91.00
2018-08-11T21:57:44.502Z,91.10
2018-08-11T22:00:34.329Z,90.70
2018-08-11T22:03:04.992Z,90.90
2018-08-11T22:05:34.528Z,92.00
2018-08-11T22:08:04.507Z,91.40
2018-08-11T22:10:34.216Z,92.50
2018-08-11T22:13:04.010Z,92.50
2018-08-11T22:15:33.740Z,93.10
2018-08-11T22:18:03.435Z,92.40
2018-08-11T22:20:33.330Z,93.70
2018-08-11T22:23:02.958Z,92.50
2018-08-11T22:25:32.692Z,92.60
2018-08-11T22:28:03.424Z,92.80
2018-08-11T22:30:33.293Z,92.10
2018-08-11T22:33:03.053Z,92.10
2018-08-11T22:35:32.683Z,91.40
2018-08-11T22:38:02.626Z,92.10
2018-08-11T22:40:32.444Z,91.50
2018-08-11T22:43:02.071Z,91.40
2018-08-11T22:45:31.765Z,91.10
2018-08-11T22:48:01.708Z,91.60
2018-08-11T22:50:31.468Z,91.60
2018-08-11T22:53:01.705Z,92.60
2018-08-11T22:55:31.293Z,92.10
2018-08-11T22:58:00.860Z,91.90
2018-08-11T23:00:30.525Z,92.30
2018-08-11T23:03:00.129Z,92.00
2018-08-11T23:05:29.706Z,91.70
2018-08-11T23:07:59.462Z,91.00
2018-08-11T23:10:29.398Z,90.70
2018-08-11T23:12:59.199Z,91.40
2018-08-11T23:15:28.824Z,91.70
2018-08-11T23:17:58.389Z,90.60
2018-08-11T23:20:28.288Z,91.30
2018-08-11T23:22:58.111Z,92.30
2018-08-11T23:25:27.665Z,92.60
2018-08-11T23:27:57.479Z,92.20
2018-08-11T23:30:27.128Z,93.20
2018-08-11T23:32:56.851Z,94.00
2018-08-11T23:35:27.264Z,93.70
2018-08-11T23:37:57.091Z,93.40
2018-08-11T23:40:26.934Z,93.70
2018-08-11T23:42:56.535Z,92.30
2018-08-11T23:45:26.461Z,92.40
2018-08-11T23:47:56.238Z,94.10
2018-08-11T23:50:25.933Z,92.90
2018-08-11T23:52:56.296Z,94.00
2018-08-11T23:55:26.048Z,93.80
2018-08-11T23:57:55.813Z,94.00
